sensor_id;sensor_type;location;lat;lon;timestamp;P1;durP1;ratioP1;P2;durP2;ratioP2
73852;SDS011;62191;51.548;5.688;2022-10-16T00:01:16;12.80;;;7.08;;
73852;SDS011;62191;51.548;5.688;2022-10-16T00:03:45;20.88;;;7.30;;
73852;SDS011;62191;51.548;5.688;2022-10-16T00:06:13;12.80;;;6.67;;
73852;SDS011;62191;51.548;5.688;2022-10-16T00:08:42;14.28;;;7.35;;
73852;SDS011;62191;51.548;5.688;2022-10-16T00:11:15;13.28;;;6.30;;
73852;SDS011;62191;51.548;5.688;2022-10-16T00:13:40;10.13;;;6.45;;
73852;SDS011;62191;51.548;5.688;2022-10-16T00:16:09;12.80;;;5.85;;
73852;SDS011;62191;51.548;5.688;2022-10-16T00:18:39;11.25;;;6.47;;
73852;SDS011;62191;51.548;5.688;2022-10-16T00:21:08;11.20;;;6.30;;
73852;SDS011;62191;51.548;5.688;2022-10-16T00:23:39;12.53;;;6.92;;
73852;SDS011;62191;51.548;5.688;2022-10-16T00:26:07;7.95;;;6.55;;
73852;SDS011;62191;51.548;5.688;2022-10-16T00:28:36;9.68;;;6.50;;
73852;SDS011;62191;51.548;5.688;2022-10-16T00:31:04;14.90;;;7.03;;
73852;SDS011;62191;51.548;5.688;2022-10-16T00:33:34;14.63;;;6.75;;
73852;SDS011;62191;51.548;5.688;2022-10-16T00:36:03;8.48;;;5.55;;
73852;SDS011;62191;51.548;5.688;2022-10-16T00:38:31;13.18;;;6.62;;
73852;SDS011;62191;51.548;5.688;2022-10-16T00:40:59;12.33;;;6.53;;
73852;SDS011;62191;51.548;5.688;2022-10-16T00:44:02;9.33;;;5.30;;
73852;SDS011;62191;51.548;5.688;2022-10-16T00:46:05;8.90;;;6.15;;
73852;SDS011;62191;51.548;5.688;2022-10-16T00:48:37;9.60;;;5.87;;
73852;SDS011;62191;51.548;5.688;2022-10-16T00:51:05;9.75;;;5.85;;
73852;SDS011;62191;51.548;5.688;2022-10-16T00:53:34;9.25;;;6.47;;
73852;SDS011;62191;51.548;5.688;2022-10-16T00:56:02;10.70;;;5.53;;
73852;SDS011;62191;51.548;5.688;2022-10-16T00:58:30;9.00;;;5.75;;
73852;SDS011;62191;51.548;5.688;2022-10-16T01:00:57;10.95;;;5.22;;
73852;SDS011;62191;51.548;5.688;2022-10-16T01:03:26;11.80;;;6.37;;
73852;SDS011;62191;51.548;5.688;2022-10-16T01:11:33;10.35;;;5.35;;
73852;SDS011;62191;51.548;5.688;2022-10-16T01:14:04;12.80;;;6.17;;
73852;SDS011;62191;51.548;5.688;2022-10-16T01:16:38;14.73;;;6.80;;
73852;SDS011;62191;51.548;5.688;2022-10-16T01:19:04;9.98;;;6.15;;
73852;SDS011;62191;51.548;5.688;2022-10-16T01:21:36;10.25;;;6.83;;
73852;SDS011;62191;51.548;5.688;2022-10-16T01:29:59;12.40;;;6.22;;
73852;SDS011;62191;51.548;5.688;2022-10-16T01:32:43;11.18;;;5.25;;
73852;SDS011;62191;51.548;5.688;2022-10-16T01:35:22;6.65;;;5.00;;
73852;SDS011;62191;51.548;5.688;2022-10-16T01:38:14;14.90;;;4.90;;
73852;SDS011;62191;51.548;5.688;2022-10-16T01:40:44;6.75;;;5.33;;
73852;SDS011;62191;51.548;5.688;2022-10-16T01:43:14;7.97;;;4.95;;
73852;SDS011;62191;51.548;5.688;2022-10-16T01:45:42;8.90;;;5.20;;
73852;SDS011;62191;51.548;5.688;2022-10-16T01:48:17;8.78;;;5.62;;
73852;SDS011;62191;51.548;5.688;2022-10-16T01:50:41;10.40;;;5.15;;
73852;SDS011;62191;51.548;5.688;2022-10-16T01:53:11;9.08;;;4.97;;
73852;SDS011;62191;51.548;5.688;2022-10-16T01:55:40;8.25;;;4.35;;
73852;SDS011;62191;51.548;5.688;2022-10-16T01:58:11;7.55;;;5.30;;
73852;SDS011;62191;51.548;5.688;2022-10-16T02:00:40;6.53;;;4.97;;
73852;SDS011;62191;51.548;5.688;2022-10-16T02:03:10;8.35;;;5.03;;
73852;SDS011;62191;51.548;5.688;2022-10-16T02:08:20;8.75;;;4.60;;
73852;SDS011;62191;51.548;5.688;2022-10-16T02:10:48;6.12;;;3.83;;
73852;SDS011;62191;51.548;5.688;2022-10-16T02:13:17;4.87;;;3.65;;
73852;SDS011;62191;51.548;5.688;2022-10-16T02:15:52;5.37;;;3.72;;
73852;SDS011;62191;51.548;5.688;2022-10-16T02:18:19;8.75;;;3.80;;
73852;SDS011;62191;51.548;5.688;2022-10-16T02:20:55;3.85;;;3.20;;
73852;SDS011;62191;51.548;5.688;2022-10-16T02:23:29;7.85;;;3.72;;
73852;SDS011;62191;51.548;5.688;2022-10-16T02:25:54;7.17;;;3.58;;
73852;SDS011;62191;51.548;5.688;2022-10-16T02:28:24;5.78;;;3.72;;
73852;SDS011;62191;51.548;5.688;2022-10-16T02:31:01;7.03;;;3.55;;
73852;SDS011;62191;51.548;5.688;2022-10-16T02:33:30;4.40;;;3.20;;
73852;SDS011;62191;51.548;5.688;2022-10-16T02:35:59;5.20;;;3.25;;
73852;SDS011;62191;51.548;5.688;2022-10-16T02:38:26;8.58;;;2.95;;
73852;SDS011;62191;51.548;5.688;2022-10-16T02:40:55;8.90;;;3.22;;
73852;SDS011;62191;51.548;5.688;2022-10-16T02:43:24;7.35;;;3.10;;
73852;SDS011;62191;51.548;5.688;2022-10-16T02:45:52;5.25;;;3.37;;
73852;SDS011;62191;51.548;5.688;2022-10-16T02:48:19;5.40;;;3.15;;
73852;SDS011;62191;51.548;5.688;2022-10-16T02:50:46;7.78;;;3.40;;
73852;SDS011;62191;51.548;5.688;2022-10-16T02:53:13;5.62;;;3.27;;
73852;SDS011;62191;51.548;5.688;2022-10-16T02:55:41;8.63;;;3.83;;
73852;SDS011;62191;51.548;5.688;2022-10-16T02:58:10;5.28;;;3.58;;
73852;SDS011;62191;51.548;5.688;2022-10-16T03:00:37;9.50;;;4.60;;
73852;SDS011;62191;51.548;5.688;2022-10-16T03:03:04;5.60;;;3.10;;
73852;SDS011;62191;51.548;5.688;2022-10-16T03:05:31;7.70;;;3.30;;
73852;SDS011;62191;51.548;5.688;2022-10-16T03:07:59;5.47;;;3.10;;
73852;SDS011;62191;51.548;5.688;2022-10-16T03:10:27;5.30;;;3.47;;
73852;SDS011;62191;51.548;5.688;2022-10-16T03:12:54;5.55;;;3.45;;
73852;SDS011;62191;51.548;5.688;2022-10-16T03:15:21;5.42;;;3.58;;
73852;SDS011;62191;51.548;5.688;2022-10-16T03:17:49;18.07;;;4.72;;
73852;SDS011;62191;51.548;5.688;2022-10-16T03:20:16;6.40;;;3.40;;
73852;SDS011;62191;51.548;5.688;2022-10-16T03:22:43;5.30;;;3.37;;
73852;SDS011;62191;51.548;5.688;2022-10-16T03:25:11;6.85;;;3.70;;
73852;SDS011;62191;51.548;5.688;2022-10-16T03:27:38;5.65;;;3.80;;
73852;SDS011;62191;51.548;5.688;2022-10-16T03:30:05;4.05;;;3.15;;
73852;SDS011;62191;51.548;5.688;2022-10-16T03:32:34;4.92;;;3.20;;
73852;SDS011;62191;51.548;5.688;2022-10-16T03:35:03;6.42;;;3.42;;
73852;SDS011;62191;51.548;5.688;2022-10-16T03:37:30;5.37;;;3.37;;
73852;SDS011;62191;51.548;5.688;2022-10-16T03:39:57;6.65;;;3.62;;
73852;SDS011;62191;51.548;5.688;2022-10-16T03:42:25;10.70;;;3.00;;
73852;SDS011;62191;51.548;5.688;2022-10-16T03:44:52;4.15;;;2.98;;
73852;SDS011;62191;51.548;5.688;2022-10-16T03:47:19;6.12;;;3.17;;
73852;SDS011;62191;51.548;5.688;2022-10-16T03:49:49;9.58;;;3.58;;
73852;SDS011;62191;51.548;5.688;2022-10-16T03:52:16;5.20;;;3.15;;
73852;SDS011;62191;51.548;5.688;2022-10-16T03:54:44;6.20;;;3.02;;
73852;SDS011;62191;51.548;5.688;2022-10-16T03:57:11;4.35;;;2.70;;
73852;SDS011;62191;51.548;5.688;2022-10-16T03:59:38;3.08;;;2.50;;
73852;SDS011;62191;51.548;5.688;2022-10-16T04:02:06;6.62;;;3.00;;
73852;SDS011;62191;51.548;5.688;2022-10-16T04:04:33;8.03;;;2.95;;
73852;SDS011;62191;51.548;5.688;2022-10-16T04:07:00;5.47;;;2.83;;
73852;SDS011;62191;51.548;5.688;2022-10-16T04:09:28;5.12;;;2.65;;
73852;SDS011;62191;51.548;5.688;2022-10-16T04:11:55;6.67;;;2.92;;
73852;SDS011;62191;51.548;5.688;2022-10-16T04:14:22;6.25;;;3.20;;
73852;SDS011;62191;51.548;5.688;2022-10-16T04:16:49;3.50;;;2.98;;
73852;SDS011;62191;51.548;5.688;2022-10-16T04:19:17;4.35;;;3.27;;
73852;SDS011;62191;51.548;5.688;2022-10-16T04:21:44;4.95;;;3.20;;
73852;SDS011;62191;51.548;5.688;2022-10-16T04:24:11;6.50;;;3.00;;
73852;SDS011;62191;51.548;5.688;2022-10-16T04:26:39;7.97;;;3.10;;
73852;SDS011;62191;51.548;5.688;2022-10-16T04:29:06;8.18;;;3.67;;
73852;SDS011;62191;51.548;5.688;2022-10-16T04:31:33;5.58;;;2.70;;
73852;SDS011;62191;51.548;5.688;2022-10-16T04:34:00;4.28;;;2.87;;
73852;SDS011;62191;51.548;5.688;2022-10-16T04:36:28;9.35;;;2.80;;
73852;SDS011;62191;51.548;5.688;2022-10-16T04:38:57;6.08;;;2.72;;
73852;SDS011;62191;51.548;5.688;2022-10-16T04:41:25;5.33;;;2.67;;
73852;SDS011;62191;51.548;5.688;2022-10-16T04:43:52;7.35;;;3.10;;
73852;SDS011;62191;51.548;5.688;2022-10-16T04:46:19;6.62;;;2.70;;
73852;SDS011;62191;51.548;5.688;2022-10-16T04:48:47;7.42;;;3.50;;
73852;SDS011;62191;51.548;5.688;2022-10-16T04:51:14;7.50;;;4.08;;
73852;SDS011;62191;51.548;5.688;2022-10-16T04:53:41;7.83;;;3.37;;
73852;SDS011;62191;51.548;5.688;2022-10-16T04:56:09;8.58;;;3.22;;
73852;SDS011;62191;51.548;5.688;2022-10-16T04:58:36;8.40;;;3.37;;
73852;SDS011;62191;51.548;5.688;2022-10-16T05:01:03;7.40;;;3.05;;
73852;SDS011;62191;51.548;5.688;2022-10-16T05:03:31;4.53;;;2.67;;
73852;SDS011;62191;51.548;5.688;2022-10-16T05:05:58;6.58;;;3.30;;
73852;SDS011;62191;51.548;5.688;2022-10-16T05:08:25;4.67;;;3.02;;
73852;SDS011;62191;51.548;5.688;2022-10-16T05:10:52;6.65;;;3.20;;
73852;SDS011;62191;51.548;5.688;2022-10-16T05:13:20;5.78;;;3.10;;
73852;SDS011;62191;51.548;5.688;2022-10-16T05:15:48;6.40;;;3.10;;
73852;SDS011;62191;51.548;5.688;2022-10-16T05:18:16;5.17;;;2.70;;
73852;SDS011;62191;51.548;5.688;2022-10-16T05:20:43;7.35;;;3.60;;
73852;SDS011;62191;51.548;5.688;2022-10-16T05:23:11;4.67;;;3.33;;
73852;SDS011;62191;51.548;5.688;2022-10-16T05:25:38;7.95;;;3.20;;
73852;SDS011;62191;51.548;5.688;2022-10-16T05:28:05;6.42;;;3.33;;
73852;SDS011;62191;51.548;5.688;2022-10-16T05:30:33;7.60;;;3.27;;
73852;SDS011;62191;51.548;5.688;2022-10-16T05:33:00;6.45;;;3.20;;
73852;SDS011;62191;51.548;5.688;2022-10-16T05:35:27;4.80;;;3.17;;
73852;SDS011;62191;51.548;5.688;2022-10-16T05:37:55;4.95;;;3.08;;
73852;SDS011;62191;51.548;5.688;2022-10-16T05:40:22;6.90;;;3.55;;
73852;SDS011;62191;51.548;5.688;2022-10-16T05:42:49;9.80;;;3.90;;
73852;SDS011;62191;51.548;5.688;2022-10-16T05:45:18;8.40;;;3.80;;
73852;SDS011;62191;51.548;5.688;2022-10-16T05:47:47;10.13;;;5.20;;
73852;SDS011;62191;51.548;5.688;2022-10-16T05:50:14;7.97;;;3.70;;
73852;SDS011;62191;51.548;5.688;2022-10-16T05:52:42;5.15;;;3.60;;
73852;SDS011;62191;51.548;5.688;2022-10-16T05:55:09;4.67;;;3.22;;
73852;SDS011;62191;51.548;5.688;2022-10-16T05:57:36;6.17;;;3.77;;
73852;SDS011;62191;51.548;5.688;2022-10-16T06:00:04;7.30;;;3.67;;
73852;SDS011;62191;51.548;5.688;2022-10-16T06:02:32;10.48;;;4.03;;
73852;SDS011;62191;51.548;5.688;2022-10-16T06:04:59;9.93;;;3.67;;
73852;SDS011;62191;51.548;5.688;2022-10-16T06:07:26;4.85;;;3.80;;
73852;SDS011;62191;51.548;5.688;2022-10-16T06:09:54;10.23;;;3.50;;
73852;SDS011;62191;51.548;5.688;2022-10-16T06:12:21;7.55;;;4.55;;
73852;SDS011;62191;51.548;5.688;2022-10-16T06:14:48;10.95;;;4.12;;
73852;SDS011;62191;51.548;5.688;2022-10-16T06:17:16;8.50;;;3.92;;
73852;SDS011;62191;51.548;5.688;2022-10-16T06:19:44;7.20;;;4.12;;
73852;SDS011;62191;51.548;5.688;2022-10-16T06:22:11;8.95;;;3.80;;
73852;SDS011;62191;51.548;5.688;2022-10-16T06:24:38;6.12;;;4.00;;
73852;SDS011;62191;51.548;5.688;2022-10-16T06:27:06;7.22;;;3.80;;
73852;SDS011;62191;51.548;5.688;2022-10-16T06:29:33;6.50;;;4.03;;
73852;SDS011;62191;51.548;5.688;2022-10-16T06:32:00;6.55;;;4.22;;
73852;SDS011;62191;51.548;5.688;2022-10-16T06:34:28;9.28;;;4.37;;
73852;SDS011;62191;51.548;5.688;2022-10-16T06:36:55;12.28;;;5.42;;
73852;SDS011;62191;51.548;5.688;2022-10-16T06:39:22;7.33;;;4.75;;
73852;SDS011;62191;51.548;5.688;2022-10-16T06:41:49;8.25;;;4.75;;
73852;SDS011;62191;51.548;5.688;2022-10-16T06:44:17;9.13;;;4.60;;
73852;SDS011;62191;51.548;5.688;2022-10-16T06:46:44;9.58;;;5.00;;
73852;SDS011;62191;51.548;5.688;2022-10-16T06:49:11;6.85;;;4.00;;
73852;SDS011;62191;51.548;5.688;2022-10-16T06:51:40;7.55;;;4.58;;
73852;SDS011;62191;51.548;5.688;2022-10-16T06:54:07;6.20;;;3.77;;
73852;SDS011;62191;51.548;5.688;2022-10-16T06:56:35;10.93;;;4.45;;
73852;SDS011;62191;51.548;5.688;2022-10-16T06:59:03;10.35;;;4.00;;
73852;SDS011;62191;51.548;5.688;2022-10-16T07:01:30;11.33;;;4.60;;
73852;SDS011;62191;51.548;5.688;2022-10-16T07:03:58;9.15;;;4.78;;
73852;SDS011;62191;51.548;5.688;2022-10-16T07:06:30;7.00;;;4.10;;
73852;SDS011;62191;51.548;5.688;2022-10-16T07:09:00;6.65;;;4.30;;
73852;SDS011;62191;51.548;5.688;2022-10-16T07:11:29;6.78;;;3.70;;
73852;SDS011;62191;51.548;5.688;2022-10-16T07:13:58;9.35;;;3.77;;
73852;SDS011;62191;51.548;5.688;2022-10-16T07:16:26;6.45;;;4.17;;
73852;SDS011;62191;51.548;5.688;2022-10-16T07:18:55;7.37;;;3.67;;
73852;SDS011;62191;51.548;5.688;2022-10-16T07:21:25;4.55;;;3.75;;
73852;SDS011;62191;51.548;5.688;2022-10-16T07:23:55;6.30;;;3.12;;
73852;SDS011;62191;51.548;5.688;2022-10-16T07:26:24;9.35;;;3.60;;
73852;SDS011;62191;51.548;5.688;2022-10-16T07:28:51;6.20;;;3.20;;
73852;SDS011;62191;51.548;5.688;2022-10-16T07:31:19;10.03;;;3.10;;
73852;SDS011;62191;51.548;5.688;2022-10-16T07:33:48;4.00;;;2.85;;
73852;SDS011;62191;51.548;5.688;2022-10-16T07:36:16;6.08;;;3.30;;
73852;SDS011;62191;51.548;5.688;2022-10-16T07:38:45;5.83;;;2.90;;
73852;SDS011;62191;51.548;5.688;2022-10-16T07:41:13;8.20;;;2.90;;
73852;SDS011;62191;51.548;5.688;2022-10-16T07:43:50;6.45;;;3.20;;
73852;SDS011;62191;51.548;5.688;2022-10-16T07:46:22;6.60;;;2.90;;
73852;SDS011;62191;51.548;5.688;2022-10-16T07:48:49;9.73;;;4.85;;
73852;SDS011;62191;51.548;5.688;2022-10-16T07:51:18;8.83;;;2.55;;
73852;SDS011;62191;51.548;5.688;2022-10-16T07:53:49;7.03;;;2.77;;
73852;SDS011;62191;51.548;5.688;2022-10-16T07:56:18;5.25;;;2.92;;
73852;SDS011;62191;51.548;5.688;2022-10-16T07:58:46;6.00;;;2.40;;
73852;SDS011;62191;51.548;5.688;2022-10-16T08:01:16;5.85;;;2.30;;
73852;SDS011;62191;51.548;5.688;2022-10-16T08:03:47;5.05;;;2.85;;
73852;SDS011;62191;51.548;5.688;2022-10-16T08:06:16;4.70;;;2.27;;
73852;SDS011;62191;51.548;5.688;2022-10-16T08:08:44;5.70;;;2.50;;
73852;SDS011;62191;51.548;5.688;2022-10-16T08:11:13;6.08;;;1.85;;
73852;SDS011;62191;51.548;5.688;2022-10-16T08:13:40;6.37;;;2.50;;
73852;SDS011;62191;51.548;5.688;2022-10-16T08:16:08;4.10;;;2.20;;
73852;SDS011;62191;51.548;5.688;2022-10-16T08:18:37;10.78;;;2.80;;
73852;SDS011;62191;51.548;5.688;2022-10-16T08:21:05;3.70;;;2.15;;
73852;SDS011;62191;51.548;5.688;2022-10-16T08:23:33;5.03;;;2.30;;
73852;SDS011;62191;51.548;5.688;2022-10-16T08:26:05;6.25;;;2.33;;
73852;SDS011;62191;51.548;5.688;2022-10-16T08:28:34;7.15;;;2.05;;
73852;SDS011;62191;51.548;5.688;2022-10-16T08:31:05;5.00;;;2.12;;
73852;SDS011;62191;51.548;5.688;2022-10-16T08:33:40;5.22;;;2.40;;
73852;SDS011;62191;51.548;5.688;2022-10-16T08:36:09;6.30;;;2.17;;
73852;SDS011;62191;51.548;5.688;2022-10-16T08:38:37;7.60;;;2.30;;
73852;SDS011;62191;51.548;5.688;2022-10-16T08:43:47;4.87;;;2.02;;
73852;SDS011;62191;51.548;5.688;2022-10-16T08:49:14;9.78;;;2.27;;
73852;SDS011;62191;51.548;5.688;2022-10-16T08:51:42;7.22;;;2.35;;
73852;SDS011;62191;51.548;5.688;2022-10-16T08:54:34;9.20;;;2.00;;
73852;SDS011;62191;51.548;5.688;2022-10-16T08:57:23;5.85;;;1.90;;
73852;SDS011;62191;51.548;5.688;2022-10-16T08:59:39;6.05;;;1.85;;
73852;SDS011;62191;51.548;5.688;2022-10-16T09:04:57;4.12;;;1.87;;
73852;SDS011;62191;51.548;5.688;2022-10-16T09:10:36;4.30;;;1.87;;
73852;SDS011;62191;51.548;5.688;2022-10-16T09:13:22;5.92;;;1.80;;
73852;SDS011;62191;51.548;5.688;2022-10-16T09:16:02;15.58;;;2.00;;
73852;SDS011;62191;51.548;5.688;2022-10-16T09:18:38;4.20;;;1.45;;
73852;SDS011;62191;51.548;5.688;2022-10-16T09:21:25;8.53;;;1.92;;
73852;SDS011;62191;51.548;5.688;2022-10-16T09:23:57;4.78;;;1.70;;
73852;SDS011;62191;51.548;5.688;2022-10-16T09:26:24;3.62;;;1.67;;
73852;SDS011;62191;51.548;5.688;2022-10-16T09:28:52;4.78;;;1.72;;
73852;SDS011;62191;51.548;5.688;2022-10-16T09:31:20;4.35;;;1.57;;
73852;SDS011;62191;51.548;5.688;2022-10-16T09:33:51;14.15;;;2.22;;
73852;SDS011;62191;51.548;5.688;2022-10-16T09:36:19;5.75;;;1.57;;
73852;SDS011;62191;51.548;5.688;2022-10-16T09:38:47;5.22;;;1.60;;
73852;SDS011;62191;51.548;5.688;2022-10-16T09:41:16;8.28;;;1.70;;
73852;SDS011;62191;51.548;5.688;2022-10-16T09:46:32;7.25;;;1.90;;
73852;SDS011;62191;51.548;5.688;2022-10-16T09:49:02;4.60;;;1.52;;
73852;SDS011;62191;51.548;5.688;2022-10-16T09:51:46;5.45;;;1.40;;
73852;SDS011;62191;51.548;5.688;2022-10-16T09:54:15;8.30;;;2.08;;
73852;SDS011;62191;51.548;5.688;2022-10-16T09:56:44;7.05;;;1.60;;
73852;SDS011;62191;51.548;5.688;2022-10-16T09:59:14;7.97;;;1.87;;
73852;SDS011;62191;51.548;5.688;2022-10-16T10:01:44;6.65;;;2.02;;
73852;SDS011;62191;51.548;5.688;2022-10-16T10:04:12;8.50;;;1.77;;
73852;SDS011;62191;51.548;5.688;2022-10-16T10:06:46;9.45;;;1.47;;
73852;SDS011;62191;51.548;5.688;2022-10-16T10:11:52;11.08;;;1.70;;
73852;SDS011;62191;51.548;5.688;2022-10-16T10:14:24;9.93;;;2.72;;
73852;SDS011;62191;51.548;5.688;2022-10-16T10:19:38;7.42;;;1.52;;
73852;SDS011;62191;51.548;5.688;2022-10-16T10:22:17;7.85;;;1.50;;
73852;SDS011;62191;51.548;5.688;2022-10-16T10:25:07;10.23;;;1.80;;
73852;SDS011;62191;51.548;5.688;2022-10-16T10:39:04;10.15;;;1.75;;
73852;SDS011;62191;51.548;5.688;2022-10-16T10:47:02;6.80;;;1.62;;
73852;SDS011;62191;51.548;5.688;2022-10-16T10:49:56;10.38;;;2.02;;
73852;SDS011;62191;51.548;5.688;2022-10-16T10:58:22;8.00;;;1.80;;
73852;SDS011;62191;51.548;5.688;2022-10-16T11:01:15;8.88;;;1.60;;
73852;SDS011;62191;51.548;5.688;2022-10-16T11:06:55;6.55;;;1.87;;
73852;SDS011;62191;51.548;5.688;2022-10-16T11:09:19;8.98;;;2.05;;
73852;SDS011;62191;51.548;5.688;2022-10-16T11:11:50;10.53;;;1.85;;
73852;SDS011;62191;51.548;5.688;2022-10-16T11:14:19;11.30;;;1.80;;
73852;SDS011;62191;51.548;5.688;2022-10-16T11:16:54;11.57;;;2.22;;
73852;SDS011;62191;51.548;5.688;2022-10-16T11:22:36;9.35;;;1.75;;
73852;SDS011;62191;51.548;5.688;2022-10-16T11:25:21;8.73;;;1.70;;
73852;SDS011;62191;51.548;5.688;2022-10-16T11:28:06;9.88;;;1.85;;
73852;SDS011;62191;51.548;5.688;2022-10-16T11:30:53;9.63;;;1.65;;
73852;SDS011;62191;51.548;5.688;2022-10-16T11:41:32;13.08;;;1.67;;
73852;SDS011;62191;51.548;5.688;2022-10-16T11:47:01;9.60;;;1.98;;
73852;SDS011;62191;51.548;5.688;2022-10-16T11:49:40;7.47;;;1.75;;
73852;SDS011;62191;51.548;5.688;2022-10-16T11:52:12;12.25;;;1.95;;
73852;SDS011;62191;51.548;5.688;2022-10-16T11:54:55;7.75;;;1.37;;
73852;SDS011;62191;51.548;5.688;2022-10-16T11:57:27;6.25;;;1.47;;
73852;SDS011;62191;51.548;5.688;2022-10-16T12:00:00;7.62;;;1.45;;
73852;SDS011;62191;51.548;5.688;2022-10-16T12:02:47;8.03;;;1.30;;
73852;SDS011;62191;51.548;5.688;2022-10-16T12:08:15;8.60;;;1.60;;
73852;SDS011;62191;51.548;5.688;2022-10-16T12:10:44;6.25;;;1.75;;
73852;SDS011;62191;51.548;5.688;2022-10-16T12:18:43;7.70;;;1.75;;
73852;SDS011;62191;51.548;5.688;2022-10-16T12:21:11;9.35;;;1.50;;
73852;SDS011;62191;51.548;5.688;2022-10-16T12:23:50;7.60;;;1.70;;
73852;SDS011;62191;51.548;5.688;2022-10-16T12:26:27;6.45;;;1.67;;
73852;SDS011;62191;51.548;5.688;2022-10-16T12:28:57;5.47;;;1.10;;
73852;SDS011;62191;51.548;5.688;2022-10-16T12:31:44;10.40;;;2.27;;
73852;SDS011;62191;51.548;5.688;2022-10-16T12:34:29;4.62;;;1.37;;
73852;SDS011;62191;51.548;5.688;2022-10-16T12:37:07;8.90;;;1.80;;
73852;SDS011;62191;51.548;5.688;2022-10-16T12:39:47;5.15;;;1.70;;
73852;SDS011;62191;51.548;5.688;2022-10-16T12:42:34;8.58;;;1.65;;
73852;SDS011;62191;51.548;5.688;2022-10-16T12:44:48;5.83;;;1.10;;
73852;SDS011;62191;51.548;5.688;2022-10-16T12:47:19;5.45;;;1.42;;
73852;SDS011;62191;51.548;5.688;2022-10-16T12:49:52;9.30;;;1.67;;
73852;SDS011;62191;51.548;5.688;2022-10-16T12:52:28;5.78;;;1.42;;
73852;SDS011;62191;51.548;5.688;2022-10-16T12:54:57;6.40;;;1.37;;
73852;SDS011;62191;51.548;5.688;2022-10-16T12:57:36;5.92;;;1.12;;
73852;SDS011;62191;51.548;5.688;2022-10-16T13:11:25;6.87;;;1.40;;
73852;SDS011;62191;51.548;5.688;2022-10-16T13:19:36;8.30;;;1.42;;
73852;SDS011;62191;51.548;5.688;2022-10-16T13:27:59;8.23;;;1.60;;
73852;SDS011;62191;51.548;5.688;2022-10-16T13:30:38;7.62;;;1.92;;
73852;SDS011;62191;51.548;5.688;2022-10-16T13:35:48;6.92;;;1.37;;
73852;SDS011;62191;51.548;5.688;2022-10-16T13:38:17;10.93;;;2.00;;
73852;SDS011;62191;51.548;5.688;2022-10-16T13:40:49;5.17;;;1.30;;
73852;SDS011;62191;51.548;5.688;2022-10-16T13:43:34;7.20;;;1.25;;
73852;SDS011;62191;51.548;5.688;2022-10-16T13:46:04;10.18;;;2.22;;
73852;SDS011;62191;51.548;5.688;2022-10-16T13:48:33;5.72;;;1.70;;
73852;SDS011;62191;51.548;5.688;2022-10-16T13:51:14;7.55;;;1.52;;
73852;SDS011;62191;51.548;5.688;2022-10-16T13:53:42;6.45;;;1.20;;
73852;SDS011;62191;51.548;5.688;2022-10-16T13:56:12;5.75;;;1.10;;
73852;SDS011;62191;51.548;5.688;2022-10-16T13:58:41;5.78;;;1.22;;
73852;SDS011;62191;51.548;5.688;2022-10-16T14:01:16;7.60;;;1.32;;
73852;SDS011;62191;51.548;5.688;2022-10-16T14:03:50;10.58;;;1.27;;
73852;SDS011;62191;51.548;5.688;2022-10-16T14:06:19;4.60;;;1.25;;
73852;SDS011;62191;51.548;5.688;2022-10-16T14:11:37;5.47;;;1.00;;
73852;SDS011;62191;51.548;5.688;2022-10-16T14:14:05;4.62;;;1.37;;
73852;SDS011;62191;51.548;5.688;2022-10-16T14:16:34;4.62;;;1.40;;
73852;SDS011;62191;51.548;5.688;2022-10-16T14:19:02;5.92;;;1.00;;
73852;SDS011;62191;51.548;5.688;2022-10-16T14:21:35;5.97;;;1.40;;
73852;SDS011;62191;51.548;5.688;2022-10-16T14:24:12;6.00;;;1.30;;
73852;SDS011;62191;51.548;5.688;2022-10-16T14:26:41;6.62;;;1.72;;
73852;SDS011;62191;51.548;5.688;2022-10-16T14:29:14;5.03;;;1.10;;
73852;SDS011;62191;51.548;5.688;2022-10-16T14:31:42;8.63;;;1.35;;
73852;SDS011;62191;51.548;5.688;2022-10-16T14:34:22;6.58;;;1.55;;
73852;SDS011;62191;51.548;5.688;2022-10-16T14:36:53;4.62;;;1.25;;
73852;SDS011;62191;51.548;5.688;2022-10-16T14:39:21;5.17;;;1.62;;
73852;SDS011;62191;51.548;5.688;2022-10-16T14:41:50;3.30;;;1.40;;
73852;SDS011;62191;51.548;5.688;2022-10-16T14:44:18;4.47;;;1.30;;
73852;SDS011;62191;51.548;5.688;2022-10-16T14:46:45;4.95;;;1.30;;
73852;SDS011;62191;51.548;5.688;2022-10-16T14:49:15;3.65;;;1.15;;
73852;SDS011;62191;51.548;5.688;2022-10-16T14:51:45;5.05;;;1.22;;
73852;SDS011;62191;51.548;5.688;2022-10-16T14:54:14;9.28;;;2.27;;
73852;SDS011;62191;51.548;5.688;2022-10-16T14:56:56;4.85;;;1.37;;
73852;SDS011;62191;51.548;5.688;2022-10-16T14:59:30;4.95;;;1.47;;
73852;SDS011;62191;51.548;5.688;2022-10-16T15:04:57;5.95;;;1.57;;
73852;SDS011;62191;51.548;5.688;2022-10-16T15:07:27;7.78;;;1.55;;
73852;SDS011;62191;51.548;5.688;2022-10-16T15:09:55;4.35;;;1.57;;
73852;SDS011;62191;51.548;5.688;2022-10-16T15:12:23;2.62;;;1.40;;
73852;SDS011;62191;51.548;5.688;2022-10-16T15:14:50;12.68;;;1.90;;
73852;SDS011;62191;51.548;5.688;2022-10-16T15:17:17;6.65;;;1.32;;
73852;SDS011;62191;51.548;5.688;2022-10-16T15:19:45;3.98;;;1.37;;
73852;SDS011;62191;51.548;5.688;2022-10-16T15:22:12;6.37;;;1.42;;
73852;SDS011;62191;51.548;5.688;2022-10-16T15:24:39;7.35;;;1.90;;
73852;SDS011;62191;51.548;5.688;2022-10-16T15:27:07;4.03;;;1.20;;
73852;SDS011;62191;51.548;5.688;2022-10-16T15:29:34;6.60;;;1.50;;
73852;SDS011;62191;51.548;5.688;2022-10-16T15:32:01;4.15;;;1.42;;
73852;SDS011;62191;51.548;5.688;2022-10-16T15:34:28;7.15;;;1.40;;
73852;SDS011;62191;51.548;5.688;2022-10-16T15:36:56;6.00;;;2.17;;
73852;SDS011;62191;51.548;5.688;2022-10-16T15:39:25;6.00;;;2.02;;
73852;SDS011;62191;51.548;5.688;2022-10-16T15:41:52;7.25;;;2.50;;
73852;SDS011;62191;51.548;5.688;2022-10-16T15:44:20;5.78;;;1.85;;
73852;SDS011;62191;51.548;5.688;2022-10-16T15:46:53;8.45;;;1.77;;
73852;SDS011;62191;51.548;5.688;2022-10-16T15:49:22;6.10;;;1.75;;
73852;SDS011;62191;51.548;5.688;2022-10-16T15:51:49;6.25;;;1.55;;
73852;SDS011;62191;51.548;5.688;2022-10-16T15:54:18;5.53;;;1.65;;
73852;SDS011;62191;51.548;5.688;2022-10-16T15:56:47;4.22;;;1.60;;
73852;SDS011;62191;51.548;5.688;2022-10-16T15:59:14;7.45;;;1.70;;
73852;SDS011;62191;51.548;5.688;2022-10-16T16:01:41;6.17;;;1.62;;
73852;SDS011;62191;51.548;5.688;2022-10-16T16:04:09;6.42;;;1.92;;
73852;SDS011;62191;51.548;5.688;2022-10-16T16:06:37;9.90;;;3.95;;
73852;SDS011;62191;51.548;5.688;2022-10-16T16:09:06;7.85;;;3.55;;
73852;SDS011;62191;51.548;5.688;2022-10-16T16:11:33;9.18;;;2.42;;
73852;SDS011;62191;51.548;5.688;2022-10-16T16:14:02;10.40;;;1.98;;
73852;SDS011;62191;51.548;5.688;2022-10-16T16:16:29;10.28;;;2.08;;
73852;SDS011;62191;51.548;5.688;2022-10-16T16:18:58;9.45;;;2.25;;
73852;SDS011;62191;51.548;5.688;2022-10-16T16:21:25;19.12;;;2.47;;
73852;SDS011;62191;51.548;5.688;2022-10-16T16:23:53;13.78;;;2.40;;
73852;SDS011;62191;51.548;5.688;2022-10-16T16:26:29;10.40;;;3.35;;
73852;SDS011;62191;51.548;5.688;2022-10-16T16:28:58;7.03;;;2.87;;
73852;SDS011;62191;51.548;5.688;2022-10-16T16:31:27;18.85;;;3.10;;
73852;SDS011;62191;51.548;5.688;2022-10-16T16:33:55;13.15;;;2.52;;
73852;SDS011;62191;51.548;5.688;2022-10-16T16:36:23;6.70;;;2.10;;
73852;SDS011;62191;51.548;5.688;2022-10-16T16:38:51;7.05;;;3.20;;
73852;SDS011;62191;51.548;5.688;2022-10-16T16:41:20;6.17;;;2.87;;
73852;SDS011;62191;51.548;5.688;2022-10-16T16:43:48;12.65;;;3.22;;
73852;SDS011;62191;51.548;5.688;2022-10-16T16:46:17;8.28;;;2.60;;
73852;SDS011;62191;51.548;5.688;2022-10-16T16:48:45;11.83;;;2.98;;
73852;SDS011;62191;51.548;5.688;2022-10-16T16:51:15;8.18;;;2.60;;
73852;SDS011;62191;51.548;5.688;2022-10-16T16:53:45;8.08;;;2.50;;
73852;SDS011;62191;51.548;5.688;2022-10-16T16:56:14;11.05;;;3.17;;